Time;durP1;ratioP1;P1;durP2;ratioP2;P2;SDS_P1;SDS_P2;PMS_P1;PMS_P2;Temp;Humidity;BMP_temperature;BMP_pressure;BME280_temperature;BME280_humidity;BME280_pressure;Samples;Min_cycle;Max_cycle;Signal;HPM_P1;HPM_P2
2023/11/23 00:01:59;;;;;;;30.95;17.60;;;;;;;-1.46;100.00;101153.33;5017949;57;1142971;-71
2023/11/23 00:07:04;;;;;;;33.97;16.77;;;;;;;-1.46;100.00;101127.39;4977478;58;1143406;-71
2023/11/23 00:12:10;;;;;;;34.90;17.37;;;;;;;-1.47;100.00;101114.00;4973386;57;1142775;-72
2023/11/23 00:17:15;;;;;;;29.00;13.03;;;;;;;-1.47;100.00;101102.33;4973286;57;1143033;-70
2023/11/23 00:22:21;;;;;;;37.35;18.55;;;;;;;-1.46;100.00;101093.67;4971030;57;1142998;-71
2023/11/23 00:27:26;;;;;;;24.03;11.23;;;;;;;-1.47;100.00;101078.55;4990919;58;1142798;-71
2023/11/23 00:32:33;;;;;;;34.43;15.13;;;;;;;-1.45;100.00;101062.95;5041874;57;1142806;-70
2023/11/23 00:37:38;;;;;;;32.10;16.60;;;;;;;-1.44;100.00;101046.06;5078538;56;1142886;-71
2023/11/23 00:42:45;;;;;;;34.37;16.13;;;;;;;-1.40;100.00;101029.14;5160008;55;1143041;-72
2023/11/23 00:47:50;;;;;;;26.87;11.88;;;;;;;-1.36;100.00;101008.72;5139709;56;1142926;-74
2023/11/23 00:52:56;;;;;;;24.23;13.00;;;;;;;-1.32;100.00;100983.13;5132942;56;1142811;-71
2023/11/23 00:58:01;;;;;;;31.03;14.77;;;;;;;-1.29;100.00;100972.25;5138697;56;1142835;-72
2023/11/23 01:03:07;;;;;;;30.97;15.28;;;;;;;-1.26;100.00;100969.59;5062322;56;1143382;-70
2023/11/23 01:08:14;;;;;;;45.10;17.00;;;;;;;-1.22;100.00;100950.92;5055398;56;1142808;-73
2023/11/23 01:13:20;;;;;;;29.72;14.05;;;;;;;-1.17;100.00;100942.56;5055315;56;1142977;-72
2023/11/23 01:18:26;;;;;;;27.67;12.13;;;;;;;-1.14;100.00;100935.57;5154184;56;1143147;-72
2023/11/23 01:23:31;;;;;;;29.00;16.30;;;;;;;-1.13;100.00;100923.00;5138742;56;1142976;-70
2023/11/23 01:28:37;;;;;;;27.50;14.07;;;;;;;-1.09;100.00;100909.52;5139746;56;1143302;-74
2023/11/23 01:33:43;;;;;;;26.80;14.67;;;;;;;-1.08;100.00;100893.06;5149270;56;1142830;-70
2023/11/23 01:38:48;;;;;;;31.87;16.33;;;;;;;-1.04;100.00;100864.81;5126021;56;1143062;-73
2023/11/23 01:43:54;;;;;;;25.20;12.97;;;;;;;-1.00;100.00;100865.16;5126361;56;1142894;-71
2023/11/23 01:49:00;;;;;;;30.50;15.47;;;;;;;-0.97;100.00;100837.83;5145439;56;1176003;-72
2023/11/23 01:54:06;;;;;;;33.35;17.02;;;;;;;-0.95;100.00;100813.13;5044063;56;1143010;-70
2023/11/23 01:59:20;;;;;;;20.35;10.10;;;;;;;-0.93;100.00;100796.63;5049353;56;1143019;-74
2023/11/23 02:04:21;;;;;;;27.50;15.57;;;;;;;-0.90;100.00;100775.76;5123819;56;1142882;-71
2023/11/23 02:09:30;;;;;;;26.97;12.00;;;;;;;-0.88;100.00;100770.08;5146213;56;1143010;-71
2023/11/23 02:14:37;;;;;;;27.23;13.23;;;;;;;-0.87;100.00;100764.00;5118936;56;1142986;-73
2023/11/23 02:19:43;;;;;;;24.83;11.67;;;;;;;-0.85;100.00;100752.28;5041265;57;1142927;-73
2023/11/23 02:24:48;;;;;;;25.80;12.57;;;;;;;-0.86;100.00;100742.34;5061126;57;1142885;-73
2023/11/23 02:29:54;;;;;;;28.07;14.50;;;;;;;-0.84;100.00;100728.02;5040884;57;1142867;-73
2023/11/23 02:35:03;;;;;;;28.90;14.05;;;;;;;-0.81;100.00;100721.00;5067467;57;1143021;-73
2023/11/23 02:40:10;;;;;;;25.57;13.80;;;;;;;-0.78;100.00;100704.05;5090840;56;1152441;-74
2023/11/23 02:45:16;;;;;;;24.47;13.88;;;;;;;-0.77;100.00;100675.89;5055019;57;1143463;-74
2023/11/23 02:50:21;;;;;;;24.30;11.43;;;;;;;-0.73;100.00;100663.64;5055378;57;1142614;-74
2023/11/23 02:55:27;;;;;;;25.67;12.40;;;;;;;-0.70;100.00;100646.67;5057057;56;1143257;-72
2023/11/23 03:00:33;;;;;;;24.93;12.20;;;;;;;-0.66;100.00;100626.22;5054652;56;1143060;-72
2023/11/23 03:05:39;;;;;;;22.67;12.05;;;;;;;-0.61;100.00;100614.41;5053032;56;1142949;-73
2023/11/23 03:10:45;;;;;;;24.50;11.57;;;;;;;-0.60;100.00;100607.84;5074986;57;1143010;-72
2023/11/23 03:15:53;;;;;;;25.40;11.40;;;;;;;-0.57;100.00;100606.89;5054210;57;1142934;-72
2023/11/23 03:20:59;;;;;;;18.93;9.87;;;;;;;-0.55;100.00;100586.48;5055339;57;1142807;-71
2023/11/23 03:26:05;;;;;;;16.93;9.17;;;;;;;-0.53;100.00;100595.52;5075870;57;1140711;-74
2023/11/23 03:31:14;;;;;;;30.25;14.23;;;;;;;-0.51;100.00;100571.20;5055632;57;1140733;-71
2023/11/23 03:36:20;;;;;;;18.17;10.53;;;;;;;-0.49;100.00;100557.72;5081710;56;1142934;-73
2023/11/23 03:41:25;;;;;;;24.40;10.28;;;;;;;-0.47;100.00;100557.23;5127101;56;1143031;-74
2023/11/23 03:46:31;;;;;;;19.57;11.12;;;;;;;-0.43;100.00;100547.12;5146794;56;1142890;-71
2023/11/23 03:51:37;;;;;;;25.27;14.13;;;;;;;-0.39;100.00;100539.63;5119696;56;1143009;-71
2023/11/23 03:56:42;;;;;;;17.53;8.73;;;;;;;-0.37;100.00;100539.59;5042625;56;1142813;-72
2023/11/23 04:01:51;;;;;;;26.57;11.20;;;;;;;-0.38;100.00;100515.35;5062749;56;1140892;-74
2023/11/23 04:06:58;;;;;;;28.40;13.67;;;;;;;-0.37;100.00;100499.31;5116925;56;1142915;-71
2023/11/23 04:12:04;;;;;;;14.20;7.37;;;;;;;-0.33;100.00;100484.48;5040027;57;1142949;-73
2023/11/23 04:17:09;;;;;;;15.93;8.98;;;;;;;-0.29;100.00;100483.00;5097427;55;1140986;-73
2023/11/23 04:22:15;;;;;;;23.75;12.28;;;;;;;-0.23;100.00;100478.91;5042387;57;1141158;-73
2023/11/23 04:27:21;;;;;;;23.98;10.85;;;;;;;-0.18;100.00;100452.77;5042515;57;1143146;-69
2023/11/23 04:32:26;;;;;;;22.47;11.50;;;;;;;-0.15;100.00;100431.39;5061315;56;1142920;-72
2023/11/23 04:37:32;;;;;;;25.43;11.70;;;;;;;-0.11;100.00;100417.40;5064178;56;1143113;-74
2023/11/23 04:42:38;;;;;;;22.43;10.73;;;;;;;-0.05;100.00;100408.55;5126157;56;1143036;-71
2023/11/23 04:47:43;;;;;;;19.87;9.90;;;;;;;0.00;100.00;100392.34;5146195;56;1142892;-73
2023/11/23 04:52:49;;;;;;;20.10;9.60;;;;;;;0.04;100.00;100381.35;5099703;56;1138940;-75
2023/11/23 04:57:54;;;;;;;20.20;11.37;;;;;;;0.08;100.00;100375.14;5042978;56;1138916;-70
2023/11/23 05:03:00;;;;;;;19.90;10.40;;;;;;;0.13;100.00;100369.33;5134249;56;1140888;-73
2023/11/23 05:08:05;;;;;;;13.53;8.15;;;;;;;0.16;100.00;100384.34;5125217;56;1140835;-75
2023/11/23 05:13:12;;;;;;;23.38;10.03;;;;;;;0.16;100.00;100373.09;5077343;56;1138777;-71
2023/11/23 05:18:18;;;;;;;14.70;9.00;;;;;;;0.19;100.00;100368.63;5057751;56;1140987;-71
2023/11/23 05:23:24;;;;;;;13.70;9.27;;;;;;;0.25;100.00;100341.55;5062323;57;1138849;-72
2023/11/23 05:28:29;;;;;;;19.80;10.63;;;;;;;0.29;100.00;100344.44;5042089;57;1138682;-71
2023/11/23 05:33:37;;;;;;;16.93;10.67;;;;;;;0.33;100.00;100332.99;4959226;58;1141020;-72
2023/11/23 05:38:42;;;;;;;13.67;7.60;;;;;;;0.40;100.00;100319.30;5104643;56;1140828;-70
2023/11/23 05:43:50;;;;;;;16.63;8.07;;;;;;;0.48;100.00;100301.63;4959630;58;1138658;-72
2023/11/23 05:48:55;;;;;;;13.97;8.23;;;;;;;0.55;100.00;100300.49;4959390;58;1138953;-71
2023/11/23 05:54:00;;;;;;;22.00;11.73;;;;;;;0.64;100.00;100292.30;5099787;56;1139073;-72
2023/11/23 05:59:07;;;;;;;14.20;7.80;;;;;;;0.71;100.00;100259.92;5092104;55;1140800;-72
2023/11/23 06:04:12;;;;;;;19.00;10.27;;;;;;;0.84;100.00;100255.05;5121353;56;1138729;-70
2023/11/23 06:09:18;;;;;;;16.40;8.53;;;;;;;0.84;100.00;100255.05;5042205;56;1141013;-72
2023/11/23 06:14:23;;;;;;;19.32;8.73;;;;;;;0.88;100.00;100250.11;5061229;57;1138816;-74
2023/11/23 06:19:29;;;;;;;22.77;10.33;;;;;;;0.94;100.00;100241.57;5042089;56;1138882;-75
2023/11/23 06:24:34;;;;;;;15.38;9.10;;;;;;;0.98;100.00;100217.56;5041501;56;1140782;-72
2023/11/23 06:29:41;;;;;;;18.00;8.47;;;;;;;1.01;100.00;100212.22;5060924;56;1138762;-72
2023/11/23 06:34:47;;;;;;;12.07;6.65;;;;;;;1.04;100.00;100201.68;4958762;57;1138678;-71
2023/11/23 06:39:53;;;;;;;16.87;8.07;;;;;;;1.06;100.00;100218.09;5018653;57;1138903;-74
2023/11/23 06:44:59;;;;;;;14.73;8.47;;;;;;;1.11;100.00;100198.34;5060653;56;1138864;-75
2023/11/23 06:50:05;;;;;;;13.77;8.43;;;;;;;1.13;100.00;100177.83;5041364;56;1138789;-72
2023/11/23 06:55:13;;;;;;;12.40;7.40;;;;;;;1.18;100.00;100181.09;5040712;56;1139107;-74
2023/11/23 07:00:22;;;;;;;15.13;8.27;;;;;;;1.25;100.00;100172.52;5042119;57;1138841;-73
2023/11/23 07:05:28;;;;;;;19.97;8.40;;;;;;;1.34;100.00;100170.82;5061227;57;1138639;-74
2023/11/23 07:10:34;;;;;;;18.05;9.90;;;;;;;1.44;100.00;100181.20;5041012;57;1138720;-73
2023/11/23 07:15:41;;;;;;;14.87;9.20;;;;;;;1.49;100.00;100141.91;5037040;57;1138793;-74
2023/11/23 07:20:48;;;;;;;15.93;8.33;;;;;;;1.56;100.00;100133.73;5090992;56;1138698;-71
2023/11/23 07:25:54;;;;;;;12.03;6.70;;;;;;;1.66;100.00;100134.16;5125072;56;1138885;-72
2023/11/23 07:31:01;;;;;;;13.13;7.30;;;;;;;1.73;100.00;100123.35;5124903;56;1138844;-73
2023/11/23 07:36:08;;;;;;;15.68;8.28;;;;;;;1.82;100.00;100109.51;5167049;56;1138750;-73
2023/11/23 07:41:14;;;;;;;12.80;7.62;;;;;;;1.90;100.00;100120.40;5041552;56;1139025;-75
2023/11/23 07:46:19;;;;;;;13.63;7.70;;;;;;;1.99;100.00;100114.72;4990429;57;1138971;-71
2023/11/23 07:51:25;;;;;;;11.70;7.15;;;;;;;2.05;100.00;100106.15;4989278;57;1138710;-71
2023/11/23 07:56:32;;;;;;;14.87;7.83;;;;;;;2.13;100.00;100107.55;5129753;56;1138878;-73
2023/11/23 08:01:40;;;;;;;10.30;7.03;;;;;;;2.23;100.00;100095.73;5051887;57;1138824;-74
2023/11/23 08:06:49;;;;;;;12.33;6.20;;;;;;;2.36;100.00;100075.92;5056938;57;1138924;-73
2023/11/23 08:11:56;;;;;;;11.97;7.20;;;;;;;2.36;100.00;100075.92;5077564;57;1138824;-72
2023/11/23 08:17:02;;;;;;;12.47;7.63;;;;;;;2.47;100.00;100077.51;5105564;56;1138821;-69
2023/11/23 08:22:12;;;;;;;10.68;6.78;;;;;;;2.58;100.00;100055.63;5132231;56;1138993;-73
2023/11/23 08:27:16;;;;;;;9.45;6.15;;;;;;;2.68;100.00;100054.22;5177681;55;1138816;-72
2023/11/23 08:32:21;;;;;;;12.13;5.93;;;;;;;2.79;100.00;100050.57;5142081;55;1136791;-73
2023/11/23 08:37:27;;;;;;;10.05;5.75;;;;;;;2.88;100.00;100050.56;5059766;56;1138821;-74
2023/11/23 08:42:36;;;;;;;12.20;8.53;;;;;;;2.96;100.00;100028.78;5076425;57;1138681;-70
2023/11/23 08:47:42;;;;;;;11.80;6.67;;;;;;;3.03;100.00;100023.61;5003772;56;1138851;-75
2023/11/23 08:52:47;;;;;;;11.80;8.27;;;;;;;3.08;100.00;100006.36;4996372;57;1138908;-72
2023/11/23 08:57:53;;;;;;;13.90;8.20;;;;;;;3.15;100.00;100008.56;4970151;58;1138902;-74
2023/11/23 09:02:59;;;;;;;12.13;6.17;;;;;;;3.22;100.00;99979.00;4972564;58;1138880;-72
2023/11/23 09:08:06;;;;;;;9.77;6.80;;;;;;;3.29;100.00;99988.66;4973096;58;1136633;-72
2023/11/23 09:13:12;;;;;;;8.47;6.00;;;;;;;3.34;100.00;100005.78;5038564;57;1134539;-72
2023/11/23 09:18:17;;;;;;;12.13;8.27;;;;;;;3.38;100.00;99990.28;5056356;57;1136745;-75
2023/11/23 09:23:23;;;;;;;9.13;6.10;;;;;;;3.47;100.00;99966.72;5054422;57;1136868;-72
2023/11/23 09:28:29;;;;;;;11.60;6.90;;;;;;;3.56;100.00;99954.41;5075453;57;1135042;-74
2023/11/23 09:33:35;;;;;;;9.23;6.30;;;;;;;3.66;100.00;99952.97;5057226;56;1136818;-71
2023/11/23 09:38:41;;;;;;;9.47;6.73;;;;;;;3.74;100.00;99940.27;5056348;56;1134445;-73
2023/11/23 09:43:48;;;;;;;11.27;7.57;;;;;;;3.82;100.00;99924.11;5074740;57;1134711;-69
2023/11/23 09:48:55;;;;;;;11.10;7.57;;;;;;;3.91;100.00;99916.20;5050064;57;1136657;-71
2023/11/23 09:54:04;;;;;;;9.03;6.00;;;;;;;4.01;100.00;99892.47;5042797;56;1136802;-72
2023/11/23 09:59:10;;;;;;;7.97;5.90;;;;;;;4.09;100.00;99879.77;5051900;56;1134883;-74
2023/11/23 10:04:16;;;;;;;8.18;5.33;;;;;;;4.18;100.00;99860.88;5043601;55;1134711;-73
2023/11/23 10:09:26;;;;;;;9.83;6.33;;;;;;;4.28;100.00;99849.39;5087694;56;1134731;-73
2023/11/23 10:14:29;;;;;;;8.88;6.12;;;;;;;4.39;100.00;99833.37;5127219;56;1134776;-72
2023/11/23 10:19:35;;;;;;;6.60;5.13;;;;;;;4.47;100.00;99821.09;5147366;56;1134688;-74
2023/11/23 10:24:50;;;;;;;6.93;4.83;;;;;;;4.53;100.00;99829.41;5125621;56;1134631;-73
2023/11/23 10:29:55;;;;;;;8.75;5.03;;;;;;;4.57;100.00;99806.03;5091744;56;1134497;-74
2023/11/23 10:35:06;;;;;;;6.07;5.37;;;;;;;4.59;100.00;99809.36;5082607;56;1135007;-70
2023/11/23 10:40:12;;;;;;;23.23;11.17;;;;;;;4.63;100.00;99800.84;5061195;56;1134577;-72
2023/11/23 10:45:21;;;;;;;29.12;13.62;;;;;;;4.65;100.00;99800.28;5056152;56;1138684;-71
2023/11/23 10:50:26;;;;;;;9.93;5.70;;;;;;;4.69;100.00;99793.07;4992121;57;1138626;-72
2023/11/23 10:55:32;;;;;;;11.40;6.17;;;;;;;4.70;100.00;99795.59;5011308;57;1134483;-72
2023/11/23 11:00:39;;;;;;;19.00;8.73;;;;;;;4.73;100.00;99782.30;5048013;56;1136584;-75
2023/11/23 11:05:48;;;;;;;9.10;4.60;;;;;;;4.75;100.00;99793.50;5004638;56;1136901;-74
2023/11/23 11:10:57;;;;;;;17.03;7.03;;;;;;;4.78;100.00;99776.27;5071260;56;1134720;-72
2023/11/23 11:16:06;;;;;;;12.40;5.90;;;;;;;4.81;100.00;99757.74;5042650;57;1136747;-72
2023/11/23 11:21:14;;;;;;;13.90;7.20;;;;;;;4.86;100.00;99739.95;5000534;57;1136795;-74
2023/11/23 11:26:27;;;;;;;85.47;22.30;;;;;;;4.86;100.00;99724.23;4999726;56;1136787;-74
2023/11/23 11:31:36;;;;;;;8.23;5.03;;;;;;;4.86;100.00;99696.72;5062300;56;1138820;-72
2023/11/23 11:36:43;;;;;;;8.20;5.23;;;;;;;4.89;100.00;99693.87;5050288;56;1134548;-73
2023/11/23 11:41:49;;;;;;;9.03;5.10;;;;;;;4.91;100.00;99674.12;5127431;56;1134520;-74
2023/11/23 11:46:56;;;;;;;18.50;6.80;;;;;;;4.91;100.00;99674.95;4979274;58;1134811;-73
2023/11/23 11:52:02;;;;;;;32.83;9.87;;;;;;;4.90;100.00;99658.87;5106754;56;1136635;-74
2023/11/23 11:57:07;;;;;;;17.10;7.43;;;;;;;4.90;100.00;99637.91;5142646;56;1136806;-71
2023/11/23 12:02:13;;;;;;;14.17;6.30;;;;;;;4.91;100.00;99621.72;5162607;56;1140121;-71
2023/11/23 12:07:19;;;;;;;12.00;6.63;;;;;;;4.93;100.00;99616.74;5143144;56;1136543;-71
2023/11/23 12:12:25;;;;;;;5.00;4.25;;;;;;;4.94;100.00;99611.87;5139665;56;1136808;-75
2023/11/23 12:17:30;;;;;;;14.10;6.60;;;;;;;4.98;100.00;99594.16;5078808;56;1134256;-73
2023/11/23 12:22:36;;;;;;;10.40;5.23;;;;;;;4.99;100.00;99590.60;5082376;56;1136550;-71
2023/11/23 12:27:45;;;;;;;12.70;6.47;;;;;;;5.03;100.00;99582.91;5094762;56;1136851;-71
2023/11/23 12:32:50;;;;;;;8.95;5.72;;;;;;;5.09;100.00;99560.65;5092951;56;1136648;-73
2023/11/23 12:37:56;;;;;;;5.53;4.13;;;;;;;5.13;100.00;99564.27;5092114;56;1134736;-74
2023/11/23 12:43:03;;;;;;;7.20;4.60;;;;;;;5.17;100.00;99534.75;5014801;57;1134502;-72
2023/11/23 12:48:09;;;;;;;8.73;5.07;;;;;;;5.20;100.00;99522.24;5036347;57;1134746;-73
2023/11/23 12:53:14;;;;;;;5.30;4.80;;;;;;;5.25;100.00;99507.51;5097093;56;1143272;-74
2023/11/23 12:58:21;;;;;;;4.47;3.85;;;;;;;5.28;100.00;99489.78;4989730;57;1134939;-72
2023/11/23 13:03:26;;;;;;;5.27;3.77;;;;;;;5.34;100.00;99471.95;5065569;55;1134553;-73
2023/11/23 13:08:34;;;;;;;5.60;4.53;;;;;;;5.37;100.00;99454.66;5059340;57;1134551;-74
2023/11/23 13:13:42;;;;;;;10.27;6.67;;;;;;;5.42;100.00;99455.16;5042710;57;1134682;-75
2023/11/23 13:18:47;;;;;;;7.70;5.03;;;;;;;5.47;100.00;99449.95;5042487;57;1136840;-74
2023/11/23 13:23:53;;;;;;;8.17;4.93;;;;;;;5.54;100.00;99454.25;5062428;57;1134420;-74
2023/11/23 13:28:59;;;;;;;18.00;5.93;;;;;;;5.57;100.00;99426.02;5042079;56;1134521;-72
2023/11/23 13:34:06;;;;;;;17.53;7.30;;;;;;;5.62;100.00;99421.76;5068874;56;1136579;-73
2023/11/23 13:39:17;;;;;;;23.23;8.97;;;;;;;5.69;100.00;99421.64;5100576;56;1136995;-73
2023/11/23 13:44:22;;;;;;;18.85;7.15;;;;;;;5.77;100.00;99386.50;5053577;56;1136786;-73
2023/11/23 13:49:27;;;;;;;19.80;7.17;;;;;;;5.85;100.00;99391.15;4959951;58;1136832;-75
2023/11/23 13:54:33;;;;;;;6.37;5.00;;;;;;;5.91;100.00;99393.35;5146757;56;1136798;-76
2023/11/23 13:59:38;;;;;;;9.77;6.67;;;;;;;5.94;100.00;99369.03;4957956;57;1134725;-74
2023/11/23 14:04:44;;;;;;;11.83;6.27;;;;;;;6.04;100.00;99364.38;5126919;56;1134665;-74
2023/11/23 14:09:50;;;;;;;7.57;5.10;;;;;;;6.10;100.00;99357.34;4978647;58;1136827;-74
2023/11/23 14:14:55;;;;;;;11.10;5.60;;;;;;;6.18;100.00;99340.03;5126295;56;1134604;-74
2023/11/23 14:20:01;;;;;;;14.07;7.33;;;;;;;6.26;100.00;99329.75;5126738;56;1136546;-74
2023/11/23 14:25:07;;;;;;;8.67;5.40;;;;;;;6.33;100.00;99325.70;5145839;56;1138829;-74
2023/11/23 14:30:17;;;;;;;8.60;5.70;;;;;;;6.41;100.00;99296.22;5125125;56;1171730;-75
2023/11/23 14:35:21;;;;;;;9.93;5.03;;;;;;;6.49;100.00;99279.35;5133516;56;1134662;-73
2023/11/23 14:40:27;;;;;;;8.33;4.83;;;;;;;6.58;100.00;99279.08;5121560;56;1134531;-72
2023/11/23 14:45:33;;;;;;;8.16;4.14;;;;;;;6.66;100.00;99276.20;4979996;57;1134687;-75
2023/11/23 14:50:40;;;;;;;8.63;5.93;;;;;;;6.74;100.00;99228.27;4960842;57;1134534;-75
2023/11/23 14:55:46;;;;;;;4.77;4.23;;;;;;;6.82;100.00;99221.91;5043303;56;1136596;-75
2023/11/23 15:00:52;;;;;;;4.43;3.00;;;;;;;6.91;100.00;99205.38;5071778;56;1136842;-72
2023/11/23 15:05:59;;;;;;;7.83;4.20;;;;;;;7.00;100.00;99189.33;5054531;56;1136784;-72
2023/11/23 15:11:05;;;;;;;3.43;2.70;;;;;;;7.08;100.00;99184.24;5053881;56;1136745;-74
2023/11/23 15:16:10;;;;;;;15.30;6.00;;;;;;;7.17;100.00;99174.77;5079669;56;1136672;-76
2023/11/23 15:21:16;;;;;;;5.20;3.70;;;;;;;7.24;100.00;99170.15;5136091;55;1139080;-75
2023/11/23 15:26:21;;;;;;;4.72;3.85;;;;;;;7.35;100.00;99152.12;5138098;55;1136789;-73
2023/11/23 15:31:27;;;;;;;5.37;3.47;;;;;;;7.46;100.00;99151.23;5139152;55;1136636;-75
2023/11/23 15:36:34;;;;;;;3.35;2.90;;;;;;;7.54;100.00;99131.65;5159609;55;1136827;-75
2023/11/23 15:41:41;;;;;;;4.20;2.73;;;;;;;7.64;100.00;99116.71;5109000;56;1136878;-76
2023/11/23 15:46:47;;;;;;;4.43;2.90;;;;;;;7.71;100.00;99113.91;5073100;56;1136751;-74
2023/11/23 15:51:53;;;;;;;5.83;2.73;;;;;;;7.78;100.00;99097.94;5158859;55;1136590;-73
2023/11/23 15:56:58;;;;;;;27.03;7.87;;;;;;;7.85;100.00;99068.77;5138118;56;1136651;-75
2023/11/23 16:02:04;;;;;;;18.37;7.10;;;;;;;7.90;100.00;99050.77;5130950;56;1138903;-72
2023/11/23 16:07:09;;;;;;;6.10;2.85;;;;;;;7.95;100.00;99028.79;5138380;56;1138837;-71
2023/11/23 16:12:15;;;;;;;20.70;7.73;;;;;;;8.01;100.00;99005.04;5110541;56;1255017;-76
2023/11/23 16:17:21;;;;;;;6.37;3.40;;;;;;;8.04;100.00;98998.19;5124927;56;1138755;-77
2023/11/23 16:22:27;;;;;;;13.28;5.65;;;;;;;8.08;100.00;98973.24;5110560;56;1136819;-73
2023/11/23 16:27:32;;;;;;;8.27;3.97;;;;;;;8.04;100.00;98958.20;5143392;56;1138668;-75
2023/11/23 16:32:38;;;;;;;12.57;4.73;;;;;;;7.98;100.00;98953.49;5115036;56;1136533;-75
2023/11/23 16:37:44;;;;;;;5.13;3.90;;;;;;;7.98;100.00;98950.86;4912527;57;1138823;-76
2023/11/23 16:42:49;;;;;;;3.83;3.03;;;;;;;7.98;100.00;98921.06;5144909;55;1136651;-77
2023/11/23 16:47:55;;;;;;;11.68;5.85;;;;;;;7.97;100.00;98898.34;5126916;55;1136838;-74
2023/11/23 16:53:00;;;;;;;8.40;5.40;;;;;;;8.01;100.00;98905.83;5084658;55;1138693;-76
2023/11/23 16:58:06;;;;;;;19.55;7.62;;;;;;;8.04;100.00;98898.97;4979921;57;1136570;-75
2023/11/23 17:03:17;;;;;;;10.23;5.07;;;;;;;8.06;100.00;98874.65;5074481;56;1138836;-74
2023/11/23 17:08:20;;;;;;;6.97;4.30;;;;;;;8.10;100.00;98856.25;5025767;56;1138709;-73
2023/11/23 17:13:25;;;;;;;11.65;4.75;;;;;;;8.17;100.00;98850.42;5042843;57;1136599;-78
2023/11/23 17:18:31;;;;;;;6.05;4.05;;;;;;;8.18;100.00;98821.80;5074191;56;1138706;-74
2023/11/23 17:23:37;;;;;;;6.07;3.57;;;;;;;8.20;100.00;98796.16;5056022;57;1136662;-75
2023/11/23 17:28:43;;;;;;;9.93;4.93;;;;;;;8.22;100.00;98785.82;5056099;57;1136594;-74
2023/11/23 17:33:48;;;;;;;7.33;4.40;;;;;;;8.23;100.00;98766.41;5075752;56;1136659;-78
2023/11/23 17:38:56;;;;;;;11.37;5.73;;;;;;;8.24;100.00;98760.66;5055720;56;1152219;-75
2023/11/23 17:44:01;;;;;;;7.93;4.70;;;;;;;8.25;100.00;98727.56;5047477;56;1138607;-78
2023/11/23 17:49:07;;;;;;;8.40;3.63;;;;;;;8.26;100.00;98704.69;4991204;58;1136890;-77
2023/11/23 17:54:13;;;;;;;4.30;3.30;;;;;;;8.27;100.00;98706.34;5032662;56;1136952;-75
2023/11/23 17:59:19;;;;;;;7.07;4.13;;;;;;;8.33;100.00;98683.41;4947917;57;1136791;-78
2023/11/23 18:04:25;;;;;;;14.07;6.73;;;;;;;8.37;100.00;98688.23;5049743;56;1136786;-75
2023/11/23 18:09:31;;;;;;;6.63;4.30;;;;;;;8.43;100.00;98642.00;5099908;56;1138661;-73
2023/11/23 18:14:37;;;;;;;15.37;5.93;;;;;;;8.52;100.00;98632.38;5075898;56;1136557;-75
2023/11/23 18:19:43;;;;;;;11.70;6.33;;;;;;;8.58;100.00;98618.58;5010105;56;1138769;-74
2023/11/23 18:24:50;;;;;;;14.80;5.70;;;;;;;8.58;100.00;98612.83;5120006;56;1138977;-74
2023/11/23 18:29:55;;;;;;;8.10;4.83;;;;;;;8.54;100.00;98604.91;5076419;56;1138723;-73
2023/11/23 18:35:01;;;;;;;9.15;4.78;;;;;;;8.58;100.00;98579.06;5066687;56;1136825;-76
2023/11/23 18:40:16;;;;;;;6.40;3.97;;;;;;;8.64;100.00;98595.58;5074523;57;1136594;-73
2023/11/23 18:45:22;;;;;;;3.93;2.53;;;;;;;8.63;100.00;98686.98;5053433;57;1229587;-75
2023/11/23 18:50:27;;;;;;;8.15;1.57;;;;;;;8.49;100.00;98745.48;5058070;56;1253438;-76
2023/11/23 18:55:33;;;;;;;1.82;1.32;;;;;;;7.50;100.00;98752.76;5102322;56;1248428;-76
2023/11/23 19:00:39;;;;;;;3.03;1.00;;;;;;;6.55;100.00;98739.59;5055793;56;1227361;-77
2023/11/23 19:05:45;;;;;;;7.40;2.77;;;;;;;6.04;100.00;98722.70;5047061;56;1249416;-71
2023/11/23 19:10:52;;;;;;;4.53;2.53;;;;;;;5.93;100.00;98710.05;5020028;57;1134755;-74
2023/11/23 19:15:58;;;;;;;31.43;19.73;;;;;;;6.00;100.00;98709.02;4991789;57;1245932;-73
2023/11/23 19:21:05;;;;;;;4.50;1.60;;;;;;;6.08;100.00;98708.36;4972065;56;1140748;-77
2023/11/23 19:26:12;;;;;;;7.87;2.37;;;;;;;6.15;100.00;98705.05;4992111;57;1137058;-76
2023/11/23 19:31:19;;;;;;;5.07;2.60;;;;;;;6.22;100.00;98706.66;4976255;57;1136874;-69
2023/11/23 19:36:25;;;;;;;3.73;1.83;;;;;;;6.27;100.00;98709.20;4999855;57;1136723;-74
2023/11/23 19:41:32;;;;;;;2.65;2.10;;;;;;;6.34;100.00;98709.50;5030748;57;1151614;-73
2023/11/23 19:46:39;;;;;;;7.12;3.10;;;;;;;6.39;100.00;98713.04;5049647;57;1231161;-77
2023/11/23 19:51:45;;;;;;;3.83;1.63;;;;;;;6.45;100.00;98739.56;5040487;57;1156764;-76
2023/11/23 19:56:51;;;;;;;5.45;3.52;;;;;;;6.50;100.00;98718.98;4993732;57;1136571;-74
2023/11/23 20:01:56;;;;;;;2.67;1.80;;;;;;;6.57;100.00;98711.40;4994067;57;1246952;-76
2023/11/23 20:07:03;;;;;;;6.30;2.57;;;;;;;6.62;100.00;98725.76;4998057;57;1213244;-78
2023/11/23 20:12:09;;;;;;;4.63;3.13;;;;;;;6.64;100.00;98747.95;5060057;56;1171349;-77
2023/11/23 20:17:16;;;;;;;5.07;2.10;;;;;;;6.62;100.00;98770.89;5102866;55;1136808;-75
2023/11/23 20:22:22;;;;;;;11.33;5.17;;;;;;;6.52;100.00;98770.06;5063888;56;1136672;-75
2023/11/23 20:27:27;;;;;;;7.85;2.25;;;;;;;6.35;100.00;98748.75;5082343;56;1140443;-69
2023/11/23 20:32:33;;;;;;;8.47;3.17;;;;;;;6.20;100.00;98758.45;5117021;55;1134685;-70
2023/11/23 20:37:39;;;;;;;7.25;1.40;;;;;;;6.08;100.00;98727.56;5070365;56;1136292;-69
2023/11/23 20:42:45;;;;;;;4.20;1.00;;;;;;;5.94;100.00;98710.88;5075173;56;1134571;-69
2023/11/23 20:47:50;;;;;;;4.67;2.03;;;;;;;5.85;100.00;98710.33;5097155;56;1134609;-67
2023/11/23 20:52:56;;;;;;;5.73;1.20;;;;;;;5.79;100.00;98709.56;5106555;55;1134633;-71
2023/11/23 20:58:02;;;;;;;5.77;1.23;;;;;;;5.74;100.00;98694.69;5051141;56;1134387;-69
2023/11/23 21:03:09;;;;;;;4.40;1.20;;;;;;;5.71;100.00;98672.66;5102202;56;1134817;-70
2023/11/23 21:08:17;;;;;;;4.30;1.20;;;;;;;5.70;100.00;98654.78;5073234;55;1134956;-67
2023/11/23 21:13:22;;;;;;;3.20;0.70;;;;;;;5.70;100.00;98639.52;5050193;57;1134650;-71
2023/11/23 21:18:28;;;;;;;4.08;0.85;;;;;;;5.71;100.00;98621.52;5117980;56;1134723;-68
2023/11/23 21:23:36;;;;;;;3.08;0.72;;;;;;;5.71;100.00;98601.36;4979651;58;1136784;-67
2023/11/23 21:28:43;;;;;;;5.47;1.10;;;;;;;5.70;100.00;98620.69;5064643;56;1134644;-71
2023/11/23 21:33:48;;;;;;;4.17;1.20;;;;;;;5.71;100.00;98608.41;5027862;57;1134509;-68
2023/11/23 21:38:53;;;;;;;4.80;1.27;;;;;;;5.73;100.00;98611.72;5130700;56;1134778;-69
2023/11/23 21:43:59;;;;;;;11.88;3.42;;;;;;;5.73;100.00;98615.17;4961856;57;1134668;-69
2023/11/23 21:49:05;;;;;;;9.10;1.50;;;;;;;5.76;100.00;98611.46;4962014;57;1136772;-67
2023/11/23 21:54:10;;;;;;;4.70;1.13;;;;;;;5.78;100.00;98618.72;5146295;56;1134625;-69
2023/11/23 21:59:16;;;;;;;14.83;2.20;;;;;;;5.79;100.00;98607.26;5126107;56;1134507;-67
2023/11/23 22:04:21;;;;;;;10.20;1.15;;;;;;;5.87;100.00;98625.28;5124912;56;1136626;-70
2023/11/23 22:09:30;;;;;;;6.55;1.52;;;;;;;5.95;100.00;98597.93;5072572;56;1142296;-69
2023/11/23 22:14:38;;;;;;;6.83;1.67;;;;;;;6.06;100.00;98586.95;5069111;57;1134506;-69
2023/11/23 22:19:43;;;;;;;11.30;2.00;;;;;;;6.11;100.00;98593.42;5064869;56;1134761;-68
2023/11/23 22:24:49;;;;;;;8.97;1.27;;;;;;;6.15;100.00;98597.91;5058762;56;1136814;-67
2023/11/23 22:29:55;;;;;;;6.60;2.53;;;;;;;6.12;100.00;98591.14;5094678;56;1134696;-68
2023/11/23 22:35:01;;;;;;;15.40;1.93;;;;;;;6.14;100.00;98583.13;5072887;56;1134751;-69
2023/11/23 22:40:09;;;;;;;4.70;1.33;;;;;;;6.13;100.00;98594.11;5074934;56;1136806;-69
2023/11/23 22:45:16;;;;;;;7.00;2.07;;;;;;;6.14;100.00;98562.97;5105773;56;1134993;-70
2023/11/23 22:50:22;;;;;;;12.20;3.53;;;;;;;6.16;100.00;98570.70;5080873;56;1134842;-69
2023/11/23 22:55:28;;;;;;;6.43;1.77;;;;;;;6.12;100.00;98579.81;5076879;56;1136994;-69
2023/11/23 23:00:36;;;;;;;9.27;2.10;;;;;;;6.07;100.00;98575.48;5086031;56;1134633;-69
2023/11/23 23:05:42;;;;;;;8.50;1.67;;;;;;;6.04;100.00;98572.65;5076549;56;1135091;-69